Time;durP1;ratioP1;P1;durP2;ratioP2;P2;SDS_P1;SDS_P2;PMS_P1;PMS_P2;Temp;Humidity;BMP_temperature;BMP_pressure;BME280_temperature;BME280_humidity;BME280_pressure;Samples;Min_cycle;Max_cycle;Signal;HPM_P1;HPM_P2
2023/03/03 00:01:29;;;;;;;19.58;12.40;;;27.80;78.40;;;;;;5083527;28;20059;-50
2023/03/03 00:03:56;;;;;;;37.33;13.52;;;27.80;78.20;;;;;;5082933;28;20020;-53
2023/03/03 00:06:23;;;;;;;29.10;13.15;;;27.80;78.20;;;;;;5080917;28;20220;-52
2023/03/03 00:08:50;;;;;;;24.40;13.73;;;27.80;78.20;;;;;;5084374;28;20055;-54
2023/03/03 00:11:17;;;;;;;27.33;13.70;;;27.80;78.20;;;;;;5083919;28;20070;-50
2023/03/03 00:13:51;;;;;;;28.15;13.75;;;27.80;78.20;;;;;;5084283;28;20032;-51
2023/03/03 00:16:50;;;;;;;32.50;14.25;;;27.80;78.20;;;;;;5083965;28;20028;-55
2023/03/03 00:19:20;;;;;;;22.35;14.07;;;27.80;78.40;;;;;;5028149;28;20379;-51
2023/03/03 00:21:50;;;;;;;26.42;13.52;;;27.70;78.10;;;;;;5083709;28;20044;-51
2023/03/03 00:24:33;;;;;;;28.83;13.55;;;27.80;78.40;;;;;;5083562;28;20082;-54
2023/03/03 00:27:08;;;;;;;36.35;15.20;;;27.80;78.30;;;;;;5079438;28;20054;-52
2023/03/03 00:29:39;;;;;;;27.20;14.20;;;27.80;78.30;;;;;;5072585;28;20036;-48
2023/03/03 00:32:20;;;;;;;21.98;14.15;;;27.70;78.20;;;;;;5066290;28;20035;-47
2023/03/03 00:34:47;;;;;;;26.65;14.05;;;27.80;78.20;;;;;;5070745;28;20044;-51
2023/03/03 00:37:29;;;;;;;21.50;12.95;;;27.70;78.00;;;;;;5074903;28;20052;-55
2023/03/03 00:40:23;;;;;;;21.80;12.68;;;27.80;77.90;;;;;;5083980;28;20028;-48
2023/03/03 00:42:53;;;;;;;21.67;13.43;;;27.80;77.80;;;;;;5081768;28;20208;-52
2023/03/03 00:45:29;;;;;;;19.33;13.38;;;27.70;77.50;;;;;;5083619;28;20029;-50
2023/03/03 00:47:57;;;;;;;20.60;12.80;;;27.70;77.50;;;;;;5083369;28;20016;-51
2023/03/03 00:50:34;;;;;;;24.25;13.10;;;27.80;77.60;;;;;;5083550;28;20307;-54
2023/03/03 00:53:10;;;;;;;19.27;12.77;;;27.80;77.50;;;;;;5083803;28;20033;-48
2023/03/03 00:55:36;;;;;;;17.67;13.25;;;27.80;77.60;;;;;;5087017;28;20032;-49
2023/03/03 00:58:03;;;;;;;16.58;12.10;;;27.80;77.50;;;;;;5087685;28;20020;-49
2023/03/03 01:00:30;;;;;;;16.42;12.45;;;27.80;77.40;;;;;;5087539;28;20016;-49
2023/03/03 01:02:59;;;;;;;17.98;12.40;;;27.80;77.30;;;;;;5087719;28;20025;-48
2023/03/03 01:05:25;;;;;;;17.58;12.65;;;27.80;77.40;;;;;;5082844;28;20028;-50
2023/03/03 01:07:52;;;;;;;25.30;13.60;;;27.80;77.40;;;;;;5078519;28;20021;-56
2023/03/03 01:10:19;;;;;;;17.30;12.77;;;27.80;77.30;;;;;;5081066;28;20028;-46
2023/03/03 01:12:45;;;;;;;16.90;13.13;;;27.80;77.30;;;;;;5075971;28;20067;-50
2023/03/03 01:15:13;;;;;;;20.02;13.32;;;27.70;77.20;;;;;;5067262;28;20054;-54
2023/03/03 01:17:41;;;;;;;20.20;13.05;;;27.70;77.20;;;;;;5067476;28;20029;-49
2023/03/03 01:20:10;;;;;;;24.83;13.15;;;27.70;77.30;;;;;;5066808;28;20088;-48
2023/03/03 01:22:36;;;;;;;20.20;13.52;;;27.70;77.30;;;;;;5067033;28;20020;-50
2023/03/03 01:25:03;;;;;;;17.77;13.25;;;27.70;77.30;;;;;;5067028;28;20044;-49
2023/03/03 01:27:30;;;;;;;20.60;14.40;;;27.70;77.50;;;;;;5066964;28;20254;-49
2023/03/03 01:29:59;;;;;;;19.55;14.40;;;27.70;77.50;;;;;;5066988;28;20028;-53
2023/03/03 01:32:26;;;;;;;21.50;15.23;;;27.70;77.40;;;;;;5048888;28;20256;-45
2023/03/03 01:34:53;;;;;;;19.08;16.38;;;27.70;77.60;;;;;;5066624;28;20209;-52
2023/03/03 01:50:19;;;;;;;19.25;14.70;;;27.70;77.10;;;;;;5093183;27;20432;-48
2023/03/03 01:52:46;;;;;;;17.15;13.98;;;27.90;77.10;;;;;;5081292;28;20044;-54
2023/03/03 01:55:24;;;;;;;21.38;13.77;;;27.80;77.20;;;;;;5090914;28;20090;-47
2023/03/03 01:58:07;;;;;;;16.10;14.30;;;27.80;77.20;;;;;;5081594;28;20040;-52
2023/03/03 02:00:38;;;;;;;17.73;13.52;;;27.80;77.20;;;;;;5080144;28;20013;-50
2023/03/03 02:03:05;;;;;;;20.33;13.95;;;27.80;77.20;;;;;;5081207;28;20067;-49
2023/03/03 02:05:36;;;;;;;20.25;13.63;;;27.70;77.10;;;;;;5082166;28;20017;-48
2023/03/03 02:08:03;;;;;;;19.02;14.13;;;27.70;77.10;;;;;;5089100;28;20375;-48
2023/03/03 02:10:30;;;;;;;21.77;13.88;;;27.70;77.10;;;;;;5084569;28;20304;-48
2023/03/03 02:12:58;;;;;;;18.50;13.88;;;27.70;77.10;;;;;;5081026;28;20044;-51
2023/03/03 02:15:37;;;;;;;17.55;13.93;;;27.70;77.00;;;;;;5089124;28;20024;-48
2023/03/03 02:18:16;;;;;;;18.52;13.30;;;27.70;77.30;;;;;;5082163;28;20326;-49
2023/03/03 02:21:05;;;;;;;31.33;14.20;;;27.70;77.40;;;;;;5080449;28;20033;-46
2023/03/03 02:24:08;;;;;;;37.50;15.30;;;27.70;77.40;;;;;;5080710;28;20087;-47
2023/03/03 02:26:40;;;;;;;32.55;14.23;;;27.70;77.50;;;;;;5080849;28;20024;-50
2023/03/03 02:29:08;;;;;;;24.42;13.40;;;27.70;77.60;;;;;;5081405;28;20032;-46
2023/03/03 02:31:34;;;;;;;24.00;13.50;;;27.60;77.40;;;;;;5080275;28;20059;-49
2023/03/03 02:34:01;;;;;;;20.45;13.77;;;27.60;77.40;;;;;;5080611;28;20017;-53
2023/03/03 02:36:31;;;;;;;25.13;14.10;;;27.70;77.50;;;;;;5085145;28;20037;-52
2023/03/03 02:39:18;;;;;;;18.58;13.48;;;27.60;77.50;;;;;;5093265;28;20028;-52
2023/03/03 02:42:21;;;;;;;20.85;13.65;;;27.60;78.00;;;;;;5091669;28;20033;-50
2023/03/03 02:44:47;;;;;;;21.55;13.25;;;27.60;77.50;;;;;;5088800;28;20118;-46
2023/03/03 02:47:14;;;;;;;26.33;13.77;;;27.60;77.50;;;;;;5079766;28;20067;-49
2023/03/03 02:49:42;;;;;;;26.38;14.50;;;27.60;77.50;;;;;;5074206;28;20108;-61
2023/03/03 02:52:13;;;;;;;22.20;13.27;;;27.70;77.50;;;;;;5066448;28;20025;-47
2023/03/03 02:54:40;;;;;;;23.95;13.43;;;27.60;77.30;;;;;;5081146;28;20032;-49
2023/03/03 02:57:07;;;;;;;20.70;12.65;;;27.60;77.40;;;;;;5084912;28;20035;-46
2023/03/03 02:59:34;;;;;;;20.05;13.35;;;27.60;77.40;;;;;;5086820;28;20024;-51
2023/03/03 03:02:32;;;;;;;21.10;13.13;;;27.60;77.40;;;;;;5086651;28;20028;-47
2023/03/03 03:04:59;;;;;;;19.67;12.57;;;27.60;77.40;;;;;;5086279;28;20368;-48
2023/03/03 03:07:25;;;;;;;21.08;12.68;;;27.60;77.40;;;;;;5086517;28;20312;-51
2023/03/03 03:09:52;;;;;;;17.75;12.05;;;27.60;77.40;;;;;;5086593;28;20039;-49
2023/03/03 03:12:20;;;;;;;16.98;12.48;;;27.60;77.30;;;;;;5085972;28;20024;-58
2023/03/03 03:14:46;;;;;;;16.67;12.48;;;27.60;77.30;;;;;;5073747;28;20374;-49
2023/03/03 03:17:16;;;;;;;15.95;12.38;;;27.60;77.30;;;;;;5086326;28;20024;-47
2023/03/03 03:19:42;;;;;;;17.15;12.13;;;27.60;77.40;;;;;;5086121;28;20032;-55
2023/03/03 03:22:09;;;;;;;13.85;11.88;;;27.60;77.40;;;;;;5086101;28;20035;-51
2023/03/03 03:24:36;;;;;;;18.30;12.88;;;27.60;77.30;;;;;;5086152;28;20204;-51
2023/03/03 03:27:02;;;;;;;16.30;12.15;;;27.60;77.30;;;;;;5085914;28;20042;-53
2023/03/03 03:29:31;;;;;;;15.73;11.50;;;27.60;77.40;;;;;;5085916;28;20142;-50
2023/03/03 03:31:58;;;;;;;15.38;11.63;;;27.60;77.50;;;;;;5086080;28;20039;-51
2023/03/03 03:34:24;;;;;;;16.63;12.52;;;27.60;77.50;;;;;;5085804;28;20227;-49
2023/03/03 03:36:51;;;;;;;16.77;11.57;;;27.60;77.50;;;;;;5085868;28;20307;-49
2023/03/03 03:39:18;;;;;;;14.30;11.98;;;27.60;77.40;;;;;;5085638;28;20193;-47
2023/03/03 03:41:47;;;;;;;14.00;11.55;;;27.60;77.40;;;;;;5085692;28;20035;-53
2023/03/03 03:44:14;;;;;;;15.07;11.93;;;27.60;77.40;;;;;;5085725;28;20024;-52
2023/03/03 03:46:40;;;;;;;14.25;11.38;;;27.60;77.40;;;;;;5085770;28;20335;-51
2023/03/03 03:49:07;;;;;;;14.90;11.73;;;27.50;77.30;;;;;;5085373;28;20056;-48
2023/03/03 03:51:37;;;;;;;13.00;11.45;;;27.50;77.90;;;;;;5086061;28;20312;-49
2023/03/03 03:54:04;;;;;;;14.00;11.45;;;27.50;77.40;;;;;;5085732;28;20387;-52
2023/03/03 03:56:31;;;;;;;13.70;11.02;;;27.50;77.40;;;;;;5085799;28;20036;-49
2023/03/03 03:58:59;;;;;;;16.10;11.60;;;27.60;77.50;;;;;;5085360;28;20029;-52
2023/03/03 04:01:27;;;;;;;13.43;11.68;;;27.60;77.40;;;;;;5084930;28;20017;-50
2023/03/03 04:03:53;;;;;;;19.30;11.68;;;27.50;77.40;;;;;;5085173;28;20017;-53
2023/03/03 04:06:20;;;;;;;16.60;11.80;;;27.60;77.50;;;;;;5085708;28;20196;-47
2023/03/03 04:08:46;;;;;;;16.70;10.93;;;27.50;77.50;;;;;;5085272;28;20025;-46
2023/03/03 04:11:13;;;;;;;14.75;11.80;;;27.50;77.40;;;;;;5085602;28;20032;-45
2023/03/03 04:13:39;;;;;;;12.48;10.60;;;27.50;77.50;;;;;;5085141;28;20017;-54
2023/03/03 04:16:06;;;;;;;14.63;11.32;;;27.50;77.50;;;;;;5085857;28;20036;-48
2023/03/03 04:18:33;;;;;;;13.10;10.95;;;27.50;77.60;;;;;;5085213;28;20055;-45
2023/03/03 04:20:59;;;;;;;15.15;11.35;;;27.50;77.60;;;;;;5065808;28;20025;-46
2023/03/03 04:23:26;;;;;;;12.55;10.85;;;27.50;77.60;;;;;;5065000;28;20071;-58
2023/03/03 04:25:52;;;;;;;13.07;11.45;;;27.50;77.60;;;;;;5065231;28;20023;-47
2023/03/03 04:28:20;;;;;;;13.25;10.60;;;27.50;77.60;;;;;;5064812;28;20033;-47
2023/03/03 04:30:47;;;;;;;17.60;11.25;;;27.50;77.60;;;;;;5064837;28;20025;-50
2023/03/03 04:33:13;;;;;;;19.73;13.18;;;27.50;77.60;;;;;;5064448;28;20029;-54
2023/03/03 04:35:40;;;;;;;16.00;12.93;;;27.50;77.70;;;;;;5075949;28;20041;-53
2023/03/03 04:38:06;;;;;;;20.60;16.15;;;27.50;78.30;;;;;;5064617;28;20044;-50
2023/03/03 04:40:33;;;;;;;19.98;17.63;;;27.50;77.80;;;;;;5064701;28;20310;-47
2023/03/03 04:43:00;;;;;;;19.30;16.50;;;27.50;77.80;;;;;;5064700;28;20075;-51
2023/03/03 04:45:26;;;;;;;19.15;16.85;;;27.50;77.90;;;;;;5069365;28;20036;-47
2023/03/03 04:47:53;;;;;;;17.85;15.93;;;27.40;77.90;;;;;;5070996;28;20193;-50
2023/03/03 04:50:19;;;;;;;17.63;15.20;;;27.40;77.90;;;;;;5064996;28;20028;-45
2023/03/03 04:52:46;;;;;;;19.63;14.20;;;27.40;78.00;;;;;;5075330;28;20040;-45
2023/03/03 04:55:13;;;;;;;19.10;13.63;;;27.40;78.10;;;;;;5064531;28;20288;-45
2023/03/03 04:57:39;;;;;;;14.38;12.88;;;27.40;78.10;;;;;;5064439;28;20075;-47
2023/03/03 05:00:06;;;;;;;14.07;12.40;;;27.40;78.10;;;;;;5064528;28;20033;-47
2023/03/03 05:02:33;;;;;;;19.48;12.75;;;27.30;78.10;;;;;;5064250;28;20013;-46
2023/03/03 05:04:59;;;;;;;18.17;12.77;;;27.40;78.20;;;;;;5064207;28;20040;-47
2023/03/03 05:07:26;;;;;;;15.10;11.18;;;27.40;78.20;;;;;;5064149;28;20080;-49
2023/03/03 05:09:53;;;;;;;15.10;11.73;;;27.30;78.20;;;;;;5064301;28;20028;-48
2023/03/03 05:12:20;;;;;;;13.55;11.70;;;27.40;78.20;;;;;;5063699;28;20045;-51
2023/03/03 05:14:47;;;;;;;13.98;11.43;;;27.30;78.20;;;;;;5064009;28;20202;-48
2023/03/03 05:17:14;;;;;;;12.50;10.77;;;27.30;78.20;;;;;;5064037;28;20202;-47
2023/03/03 05:19:41;;;;;;;14.02;10.90;;;27.30;78.20;;;;;;5063845;28;20032;-45
2023/03/03 05:22:07;;;;;;;13.93;10.90;;;27.30;78.10;;;;;;5064102;28;20088;-46
2023/03/03 05:24:34;;;;;;;14.02;10.60;;;27.40;78.20;;;;;;5064019;28;20037;-44
2023/03/03 05:27:00;;;;;;;13.10;10.57;;;27.40;78.10;;;;;;5063774;28;20080;-49
2023/03/03 05:29:30;;;;;;;12.35;10.35;;;27.30;78.00;;;;;;5063799;28;20037;-50
2023/03/03 05:31:57;;;;;;;13.23;10.18;;;27.30;78.00;;;;;;5063865;28;20025;-51
2023/03/03 05:34:24;;;;;;;12.98;10.23;;;27.40;78.10;;;;;;5063661;28;20224;-47
2023/03/03 05:36:50;;;;;;;11.15;8.85;;;27.30;78.00;;;;;;5063893;28;20320;-50
2023/03/03 05:39:17;;;;;;;13.02;9.85;;;27.30;77.90;;;;;;5063567;28;20084;-49
2023/03/03 05:41:44;;;;;;;11.98;9.15;;;27.40;77.70;;;;;;5063676;28;20098;-52
2023/03/03 05:44:10;;;;;;;10.77;9.63;;;27.40;78.30;;;;;;5063800;28;20039;-53
2023/03/03 05:46:37;;;;;;;11.05;9.07;;;27.40;77.70;;;;;;5063710;28;20028;-53
2023/03/03 05:49:03;;;;;;;11.77;9.27;;;27.40;77.50;;;;;;5063407;28;20056;-53
2023/03/03 05:51:30;;;;;;;12.80;9.15;;;27.40;77.50;;;;;;5064142;28;20196;-44
2023/03/03 05:53:57;;;;;;;11.88;9.30;;;27.40;77.40;;;;;;5063749;28;20037;-49
2023/03/03 05:56:23;;;;;;;11.68;9.60;;;27.40;77.40;;;;;;5063956;28;20149;-44
2023/03/03 05:58:50;;;;;;;9.85;8.40;;;27.40;77.40;;;;;;5063694;28;20033;-46
2023/03/03 06:01:16;;;;;;;11.80;9.35;;;27.40;77.20;;;;;;5063503;28;20029;-49
2023/03/03 06:03:43;;;;;;;11.70;8.38;;;27.40;77.30;;;;;;5063457;28;20021;-48
2023/03/03 06:06:11;;;;;;;11.20;8.98;;;27.40;77.30;;;;;;5063937;28;20100;-50
2023/03/03 06:08:37;;;;;;;10.82;8.57;;;27.40;77.30;;;;;;5063455;28;20017;-49
2023/03/03 06:11:04;;;;;;;10.85;8.63;;;27.40;77.40;;;;;;5063844;28;20079;-51
2023/03/03 06:13:30;;;;;;;11.93;8.90;;;27.40;77.50;;;;;;5063408;28;20040;-45
2023/03/03 06:15:57;;;;;;;11.50;8.32;;;27.40;77.50;;;;;;5063918;28;20032;-48
2023/03/03 06:18:24;;;;;;;13.68;8.30;;;27.40;77.50;;;;;;5063306;28;20074;-50
2023/03/03 06:20:54;;;;;;;11.75;8.63;;;27.40;77.50;;;;;;5063737;28;20032;-51
2023/03/03 06:23:21;;;;;;;10.52;8.32;;;27.40;77.50;;;;;;5063406;28;20025;-53
2023/03/03 06:25:48;;;;;;;9.23;8.05;;;27.30;77.50;;;;;;5066174;28;20037;-52
2023/03/03 06:28:15;;;;;;;10.18;8.10;;;27.40;77.60;;;;;;5067219;28;20035;-49
2023/03/03 06:30:41;;;;;;;13.90;8.50;;;27.30;77.60;;;;;;5067543;28;20043;-49
2023/03/03 06:33:08;;;;;;;15.18;8.85;;;27.40;77.80;;;;;;5067102;28;20308;-48
2023/03/03 06:35:35;;;;;;;12.77;8.10;;;27.30;77.70;;;;;;5067184;28;20190;-44
2023/03/03 06:38:02;;;;;;;9.75;8.23;;;27.30;77.80;;;;;;5066872;28;20029;-44
2023/03/03 06:40:28;;;;;;;12.25;8.45;;;27.30;77.80;;;;;;5067053;28;20051;-45
2023/03/03 06:42:55;;;;;;;11.93;8.40;;;27.40;77.90;;;;;;5066726;28;20124;-46
2023/03/03 06:45:21;;;;;;;10.43;8.02;;;27.40;77.90;;;;;;5066972;28;20020;-48
2023/03/03 06:47:48;;;;;;;10.13;8.18;;;27.40;78.00;;;;;;5066640;28;20051;-46
2023/03/03 06:50:19;;;;;;;12.25;8.30;;;27.40;78.20;;;;;;5066774;28;20045;-50
2023/03/03 06:52:46;;;;;;;12.10;8.35;;;27.40;78.30;;;;;;5066796;28;20247;-46
2023/03/03 06:55:20;;;;;;;13.98;8.75;;;27.40;78.40;;;;;;5066487;28;20037;-50
2023/03/03 06:57:47;;;;;;;10.95;8.30;;;27.40;78.50;;;;;;5066627;28;20028;-46
2023/03/03 07:00:25;;;;;;;12.02;8.50;;;27.40;78.60;;;;;;5066679;28;20036;-55
2023/03/03 07:03:15;;;;;;;11.77;8.20;;;27.30;78.60;;;;;;5066346;28;20303;-48
2023/03/03 07:05:42;;;;;;;9.25;7.93;;;27.40;78.70;;;;;;5061680;28;20316;-49
2023/03/03 07:08:17;;;;;;;10.60;8.35;;;27.30;78.80;;;;;;5066242;28;20043;-47
2023/03/03 07:10:45;;;;;;;10.02;8.13;;;27.40;78.90;;;;;;5066649;28;20083;-48
2023/03/03 07:13:21;;;;;;;10.88;7.72;;;27.40;79.00;;;;;;5066177;28;20016;-46
2023/03/03 07:15:49;;;;;;;12.10;8.07;;;27.30;79.00;;;;;;5066586;28;20099;-52
2023/03/03 07:18:50;;;;;;;11.55;8.07;;;27.40;79.40;;;;;;5066147;28;20013;-47
2023/03/03 07:21:18;;;;;;;12.00;8.20;;;27.30;79.20;;;;;;5066567;28;20037;-45
2023/03/03 07:23:47;;;;;;;11.82;7.88;;;27.30;79.30;;;;;;5066108;28;20017;-50
2023/03/03 07:26:24;;;;;;;10.73;8.18;;;27.30;79.20;;;;;;5066483;28;20079;-45
2023/03/03 07:29:13;;;;;;;10.23;7.72;;;27.40;79.90;;;;;;5066077;28;20339;-48
2023/03/03 07:31:41;;;;;;;10.32;7.82;;;27.30;79.30;;;;;;5065990;28;20037;-46
2023/03/03 07:34:30;;;;;;;13.20;8.38;;;27.30;79.30;;;;;;5065934;28;20045;-52
2023/03/03 07:37:06;;;;;;;11.27;8.10;;;27.30;79.30;;;;;;5065883;28;20040;-48
2023/03/03 07:39:38;;;;;;;9.50;7.45;;;27.30;79.30;;;;;;5065528;28;20305;-49
2023/03/03 07:42:10;;;;;;;11.13;8.07;;;27.30;79.30;;;;;;5065781;28;20320;-47
2023/03/03 07:44:37;;;;;;;9.05;8.15;;;27.30;79.20;;;;;;5065641;28;20036;-49
2023/03/03 07:47:28;;;;;;;10.20;7.30;;;27.30;79.30;;;;;;5065532;28;20029;-52
2023/03/03 07:49:59;;;;;;;10.77;8.15;;;27.30;79.30;;;;;;5065615;28;20079;-48
2023/03/03 07:52:25;;;;;;;11.00;8.52;;;27.30;79.40;;;;;;5065580;28;20037;-53
2023/03/03 07:54:54;;;;;;;11.00;8.27;;;27.30;79.40;;;;;;5065666;28;20025;-47
2023/03/03 07:57:39;;;;;;;13.38;8.10;;;27.30;79.50;;;;;;5065294;28;20024;-53
2023/03/03 08:00:17;;;;;;;10.35;8.10;;;27.30;79.60;;;;;;5065554;28;20048;-50
2023/03/03 08:03:07;;;;;;;10.43;7.45;;;27.30;79.70;;;;;;5065321;28;20036;-50
2023/03/03 08:05:41;;;;;;;11.43;7.65;;;27.30;79.70;;;;;;5065561;28;20039;-50
2023/03/03 08:08:17;;;;;;;11.32;8.40;;;27.30;79.80;;;;;;5065167;28;20028;-46
2023/03/03 08:10:47;;;;;;;11.75;8.18;;;27.30;80.00;;;;;;5065536;28;20041;-49
2023/03/03 08:13:19;;;;;;;41.47;10.95;;;27.30;80.10;;;;;;5065088;28;20017;-45
2023/03/03 08:16:36;;;;;;;44.45;11.07;;;27.30;80.10;;;;;;5065556;28;20036;-44
2023/03/03 08:19:04;;;;;;;37.30;10.32;;;27.30;80.30;;;;;;5014653;28;20022;-45
2023/03/03 08:21:33;;;;;;;28.95;9.38;;;27.30;80.40;;;;;;5059971;28;20344;-44
2023/03/03 08:24:00;;;;;;;22.67;9.50;;;27.20;80.50;;;;;;5064967;28;20024;-47
2023/03/03 08:26:26;;;;;;;22.05;8.80;;;27.20;80.70;;;;;;5065375;28;20037;-46
2023/03/03 08:28:54;;;;;;;15.90;8.98;;;27.20;80.90;;;;;;5064884;28;20024;-48
2023/03/03 08:31:21;;;;;;;18.20;8.73;;;27.20;81.20;;;;;;5064651;28;20043;-48
2023/03/03 08:33:47;;;;;;;19.23;9.48;;;27.10;81.40;;;;;;5064844;28;20039;-51
2023/03/03 08:36:14;;;;;;;16.83;9.10;;;27.10;81.70;;;;;;5064698;28;20041;-51
2023/03/03 08:38:42;;;;;;;11.35;8.70;;;27.10;81.90;;;;;;5064401;28;20036;-46
2023/03/03 08:41:09;;;;;;;11.48;8.82;;;27.10;82.10;;;;;;5065036;28;20128;-49
2023/03/03 08:43:35;;;;;;;13.70;9.60;;;27.00;82.30;;;;;;5064583;28;20033;-45
2023/03/03 08:46:04;;;;;;;17.55;9.95;;;27.10;82.60;;;;;;5064769;28;20025;-46
2023/03/03 08:48:32;;;;;;;20.48;9.60;;;27.00;82.70;;;;;;5063844;28;20041;-47
2023/03/03 08:50:59;;;;;;;12.85;9.40;;;27.00;82.90;;;;;;5068703;28;20269;-44
2023/03/03 08:53:26;;;;;;;14.82;9.45;;;27.00;83.10;;;;;;5070196;28;20021;-47
2023/03/03 08:55:53;;;;;;;12.75;9.43;;;27.00;83.10;;;;;;5074959;28;20040;-47
2023/03/03 08:58:21;;;;;;;15.48;9.63;;;27.00;83.10;;;;;;5069518;28;20309;-48
2023/03/03 09:00:47;;;;;;;15.63;9.48;;;27.00;83.20;;;;;;5070678;28;20096;-48
2023/03/03 09:03:14;;;;;;;16.80;9.95;;;27.00;83.20;;;;;;5064222;28;20025;-46
2023/03/03 09:05:41;;;;;;;42.13;10.60;;;27.00;83.30;;;;;;5064515;28;20036;-48
2023/03/03 09:08:09;;;;;;;32.53;11.10;;;27.00;83.20;;;;;;5064097;28;20033;-42
2023/03/03 09:10:36;;;;;;;31.15;10.45;;;27.00;83.20;;;;;;5064440;28;20100;-47
2023/03/03 09:13:12;;;;;;;25.52;10.23;;;27.00;83.50;;;;;;5064087;28;20061;-47
2023/03/03 09:15:39;;;;;;;18.50;9.55;;;27.00;84.10;;;;;;5064090;28;20029;-44
2023/03/03 09:18:27;;;;;;;16.20;8.45;;;27.00;83.70;;;;;;5073142;28;20067;-52
2023/03/03 09:20:57;;;;;;;15.20;9.73;;;27.00;83.70;;;;;;5084417;28;20044;-43
2023/03/03 09:23:36;;;;;;;17.25;9.50;;;27.00;83.60;;;;;;5084078;28;20032;-48
2023/03/03 09:26:12;;;;;;;17.48;9.07;;;26.90;83.50;;;;;;5084246;28;20115;-49
2023/03/03 09:28:39;;;;;;;13.35;8.65;;;26.90;83.50;;;;;;5083988;28;20084;-47
2023/03/03 09:31:25;;;;;;;12.02;9.50;;;26.90;83.30;;;;;;5084253;28;20032;-45
2023/03/03 09:33:54;;;;;;;16.17;9.07;;;27.00;83.30;;;;;;5083955;28;20082;-54
2023/03/03 09:36:37;;;;;;;11.38;8.88;;;27.00;83.20;;;;;;5084213;28;20062;-44
2023/03/03 09:39:20;;;;;;;13.80;8.82;;;26.90;83.30;;;;;;5083796;28;20032;-51
2023/03/03 09:42:28;;;;;;;16.83;9.35;;;26.90;83.40;;;;;;5083722;28;20100;-48
2023/03/03 09:45:19;;;;;;;26.67;10.45;;;26.90;83.60;;;;;;5083793;28;20036;-50
2023/03/03 09:48:22;;;;;;;20.85;9.68;;;26.90;83.80;;;;;;5083627;28;20028;-44
2023/03/03 09:51:01;;;;;;;16.67;9.45;;;26.90;84.00;;;;;;5077144;28;20040;-47
2023/03/03 09:53:46;;;;;;;13.45;9.48;;;26.90;84.10;;;;;;5067371;28;20048;-52
2023/03/03 09:56:23;;;;;;;12.95;8.95;;;26.90;84.40;;;;;;5080388;28;20035;-49
2023/03/03 09:59:19;;;;;;;12.73;8.88;;;26.90;84.60;;;;;;5083627;28;20342;-48
2023/03/03 10:02:23;;;;;;;13.40;9.15;;;26.80;84.50;;;;;;5078569;28;20040;-44
2023/03/03 10:05:04;;;;;;;14.13;9.60;;;26.90;84.70;;;;;;5087539;28;20033;-50
2023/03/03 10:07:54;;;;;;;12.23;9.07;;;26.80;84.70;;;;;;5087635;28;20035;-44
2023/03/03 10:11:16;;;;;;;11.90;8.98;;;26.90;84.90;;;;;;5087769;28;20044;-47
2023/03/03 10:14:04;;;;;;;13.68;9.05;;;26.90;85.00;;;;;;5025998;28;20041;-45
2023/03/03 10:16:42;;;;;;;12.25;8.65;;;26.90;85.00;;;;;;5025071;28;20022;-51
2023/03/03 10:19:26;;;;;;;13.95;9.00;;;26.80;85.00;;;;;;5061658;28;20040;-46
2023/03/03 10:22:18;;;;;;;13.30;8.82;;;26.80;85.20;;;;;;5087238;28;20029;-53
2023/03/03 10:24:44;;;;;;;15.07;9.10;;;26.80;86.00;;;;;;5087174;28;20319;-50
2023/03/03 10:27:42;;;;;;;14.02;9.15;;;26.80;85.50;;;;;;5088871;28;20023;-44
2023/03/03 10:30:29;;;;;;;13.57;9.07;;;26.80;85.60;;;;;;5091238;28;20024;-51
2023/03/03 10:33:24;;;;;;;14.63;8.77;;;26.80;85.60;;;;;;5056663;28;20033;-48
2023/03/03 10:35:57;;;;;;;20.10;9.40;;;26.80;85.60;;;;;;5061767;28;20032;-47
2023/03/03 10:38:41;;;;;;;;;;;26.90;85.70;;;;;;5087711;28;20029;-48
2023/03/03 10:41:25;;;;;;;15.63;9.50;;;26.80;85.70;;;;;;5086793;28;19926;-48
2023/03/03 10:44:12;;;;;;;13.48;9.57;;;26.80;85.70;;;;;;5086739;28;20020;-46
2023/03/03 10:46:45;;;;;;;17.88;9.55;;;26.80;85.50;;;;;;5086816;28;20036;-49
2023/03/03 10:49:25;;;;;;;;;;;26.80;85.60;;;;;;5086918;28;20040;-47
2023/03/03 10:52:24;;;;;;;15.15;9.15;;;26.90;85.50;;;;;;5086742;28;20088;-45
2023/03/03 10:54:56;;;;;;;14.82;8.90;;;26.80;85.40;;;;;;5066842;28;20040;-52
2023/03/03 10:57:41;;;;;;;13.50;9.10;;;26.80;85.50;;;;;;5085779;28;20070;-47
2023/03/03 11:00:18;;;;;;;15.50;9.02;;;26.80;85.50;;;;;;5086191;28;20062;-48
2023/03/03 11:02:56;;;;;;;15.07;8.77;;;26.80;85.40;;;;;;5066741;28;20040;-48
2023/03/03 11:05:26;;;;;;;15.13;9.18;;;26.80;85.50;;;;;;5078028;28;20024;-46
2023/03/03 11:08:03;;;;;;;19.10;9.82;;;26.80;85.50;;;;;;5066714;28;20347;-45
2023/03/03 11:10:38;;;;;;;15.13;9.30;;;26.80;85.50;;;;;;5065805;28;20047;-44
2023/03/03 11:13:20;;;;;;;15.85;9.50;;;26.90;85.60;;;;;;5074197;28;20032;-48
2023/03/03 11:16:10;;;;;;;18.92;9.48;;;26.90;85.50;;;;;;5080339;28;20020;-45
2023/03/03 11:19:11;;;;;;;21.23;11.95;;;26.90;85.50;;;;;;5077111;28;20047;-47
2023/03/03 11:22:10;;;;;;;25.60;13.70;;;26.80;85.40;;;;;;5073777;28;20040;-45
2023/03/03 11:25:15;;;;;;;28.25;15.02;;;26.90;85.50;;;;;;5081652;28;20035;-48
2023/03/03 11:28:04;;;;;;;29.33;13.80;;;26.90;85.50;;;;;;5061889;28;20036;-47
2023/03/03 11:30:34;;;;;;;22.65;11.75;;;26.90;85.30;;;;;;5081572;28;20063;-46
2023/03/03 11:33:11;;;;;;;24.23;12.35;;;26.90;85.50;;;;;;5085661;28;20235;-46
2023/03/03 11:35:50;;;;;;;21.27;12.27;;;26.90;85.70;;;;;;5080143;28;20037;-45
2023/03/03 11:38:29;;;;;;;31.05;12.50;;;26.90;85.60;;;;;;5075371;28;20028;-49
2023/03/03 11:41:26;;;;;;;33.17;11.80;;;26.90;85.80;;;;;;5085134;28;20032;-45
2023/03/03 11:44:14;;;;;;;26.52;11.82;;;26.90;86.10;;;;;;5073216;28;20050;-55
2023/03/03 11:46:59;;;;;;;23.95;11.32;;;26.80;86.20;;;;;;5084471;28;20036;-52
2023/03/03 11:49:26;;;;;;;18.70;10.52;;;26.80;86.90;;;;;;5084771;28;20393;-51
2023/03/03 11:52:00;;;;;;;21.02;11.40;;;26.70;87.30;;;;;;5084470;28;20040;-53
2023/03/03 11:54:53;;;;;;;20.95;11.25;;;26.70;87.60;;;;;;5085254;28;20012;-47
2023/03/03 11:57:28;;;;;;;20.13;11.07;;;26.70;88.10;;;;;;5084581;28;20107;-47
2023/03/03 12:00:03;;;;;;;19.52;11.32;;;26.70;88.40;;;;;;5085569;28;20031;-47
2023/03/03 12:02:36;;;;;;;19.40;10.93;;;26.70;88.90;;;;;;5084102;28;20036;-46
2023/03/03 12:05:25;;;;;;;18.50;11.85;;;26.70;89.10;;;;;;5084431;28;20229;-51
2023/03/03 12:08:18;;;;;;;20.35;13.50;;;26.60;89.90;;;;;;5085371;28;20100;-51
2023/03/03 12:11:09;;;;;;;23.23;14.27;;;26.60;90.50;;;;;;5085141;28;20020;-52
2023/03/03 12:14:02;;;;;;;25.40;14.55;;;26.60;90.90;;;;;;5085492;28;20028;-50
2023/03/03 12:16:49;;;;;;;26.73;13.85;;;26.50;91.10;;;;;;5082985;28;20069;-46
2023/03/03 12:19:24;;;;;;;25.10;13.45;;;26.50;91.30;;;;;;5084836;28;20039;-49
2023/03/03 12:22:42;;;;;;;20.58;13.35;;;26.50;91.60;;;;;;5084442;28;20216;-48
2023/03/03 12:25:14;;;;;;;21.48;12.77;;;26.40;91.80;;;;;;5062323;28;20095;-53
2023/03/03 12:28:08;;;;;;;19.52;12.25;;;26.40;91.80;;;;;;5085156;28;20024;-53
2023/03/03 12:31:05;;;;;;;23.50;15.25;;;26.40;91.90;;;;;;5079271;28;20025;-52
2023/03/03 12:34:10;;;;;;;20.27;13.90;;;26.30;92.10;;;;;;5085281;28;20028;-50
2023/03/03 12:36:49;;;;;;;21.75;13.38;;;26.30;92.20;;;;;;5063912;28;20209;-45
2023/03/03 12:39:35;;;;;;;22.60;13.45;;;26.30;92.30;;;;;;5084550;28;20279;-49
2023/03/03 12:42:18;;;;;;;22.05;14.38;;;26.30;92.40;;;;;;5084780;28;20040;-56
2023/03/03 12:45:30;;;;;;;19.90;15.00;;;26.30;92.40;;;;;;5084467;28;20092;-56
2023/03/03 12:48:04;;;;;;;20.83;14.38;;;26.30;92.50;;;;;;5071623;28;20355;-59
2023/03/03 12:50:54;;;;;;;25.65;13.93;;;26.30;92.50;;;;;;5084548;28;20055;-49
2023/03/03 12:53:41;;;;;;;21.67;13.75;;;26.30;92.30;;;;;;5084770;28;20039;-51
2023/03/03 12:56:11;;;;;;;20.02;12.27;;;26.30;92.20;;;;;;5084353;28;20027;-49
2023/03/03 12:58:54;;;;;;;18.63;12.23;;;26.30;92.30;;;;;;5084146;28;20342;-47
2023/03/03 13:02:14;;;;;;;15.90;12.55;;;26.30;92.30;;;;;;5084048;28;20016;-51
2023/03/03 13:05:19;;;;;;;16.58;11.30;;;26.20;92.40;;;;;;5084035;28;20024;-51
2023/03/03 13:07:58;;;;;;;16.83;11.45;;;26.30;92.50;;;;;;5084561;28;20023;-52
2023/03/03 13:10:31;;;;;;;15.20;11.70;;;26.20;92.40;;;;;;5084211;28;20040;-46
2023/03/03 13:13:21;;;;;;;16.48;11.90;;;26.20;92.40;;;;;;5084595;28;20272;-54
2023/03/03 13:16:03;;;;;;;13.88;11.63;;;26.20;92.50;;;;;;5078497;28;20332;-50
2023/03/03 13:18:39;;;;;;;14.77;12.15;;;26.20;92.70;;;;;;5084257;28;20082;-49
2023/03/03 13:21:09;;;;;;;17.25;12.88;;;26.20;92.80;;;;;;5084178;28;20036;-58